createdAt,value
2022-08-07T00:02:40.797Z,31.13
2022-08-07T00:04:58.788Z,27.85
2022-08-07T00:07:27.414Z,31.00
2022-08-07T00:10:18.763Z,28.83
2022-08-07T00:13:00.075Z,32.97
2022-08-07T00:15:38.123Z,34.55
2022-08-07T00:18:20.126Z,36.15
2022-08-07T00:20:51.953Z,31.85
2022-08-07T00:26:01.542Z,29.70
2022-08-07T00:28:34.373Z,30.17
2022-08-07T00:31:06.099Z,30.10
2022-08-07T00:33:36.595Z,30.60
2022-08-07T00:36:07.842Z,30.25
2022-08-07T00:38:39.138Z,30.40
2022-08-07T00:41:10.104Z,33.00
2022-08-07T00:44:01.617Z,31.23
2022-08-07T00:46:32.879Z,30.88
2022-08-07T00:49:04.999Z,30.15
2022-08-07T00:51:56.730Z,30.42
2022-08-07T00:54:23.129Z,28.98
2022-08-07T00:56:51.823Z,29.15
2022-08-07T01:02:13.942Z,27.33
2022-08-07T01:04:48.684Z,30.25
2022-08-07T01:07:18.453Z,30.98
2022-08-07T01:10:06.620Z,29.30
2022-08-07T01:12:36.435Z,28.40
2022-08-07T01:15:16.894Z,29.58
2022-08-07T01:17:45.892Z,27.83
2022-08-07T01:20:17.485Z,27.75
2022-08-07T01:23:00.618Z,29.35
2022-08-07T01:25:54.642Z,30.23
2022-08-07T01:28:24.823Z,30.08
2022-08-07T01:30:55.716Z,29.90
2022-08-07T01:33:30.165Z,30.13
2022-08-07T01:36:16.796Z,30.25
2022-08-07T01:38:45.593Z,29.35
2022-08-07T01:41:26.195Z,29.40
2022-08-07T01:43:56.087Z,28.58
2022-08-07T01:46:24.328Z,29.17
2022-08-07T01:48:53.720Z,27.33
2022-08-07T01:52:03.211Z,30.73
2022-08-07T01:54:32.699Z,31.10
2022-08-07T01:57:24.212Z,29.48
2022-08-07T02:00:03.485Z,30.90
2022-08-07T02:03:18.524Z,29.55
2022-08-07T02:05:59.655Z,29.65
2022-08-07T02:08:32.881Z,28.92
2022-08-07T02:11:04.464Z,28.90
2022-08-07T02:14:00.695Z,31.27
2022-08-07T02:16:33.297Z,30.17
2022-08-07T02:20:07.835Z,28.70
2022-08-07T02:21:58.635Z,30.13
2022-08-07T02:24:29.904Z,28.58
2022-08-07T02:27:02.494Z,29.27
2022-08-07T02:29:34.506Z,27.95
2022-08-07T02:32:13.288Z,28.67
2022-08-07T02:34:48.756Z,31.77
2022-08-07T02:37:18.655Z,30.27
2022-08-07T02:40:02.256Z,30.98
2022-08-07T02:42:40.303Z,31.83
2022-08-07T02:45:58.827Z,30.48
2022-08-07T02:48:02.040Z,28.33
2022-08-07T02:50:30.852Z,30.95
2022-08-07T02:53:15.962Z,30.38
2022-08-07T02:56:03.220Z,28.90
2022-08-07T02:58:35.561Z,30.95
2022-08-07T03:01:05.233Z,30.70
2022-08-07T03:06:25.910Z,31.58
2022-08-07T03:09:11.160Z,32.85
2022-08-07T03:12:22.027Z,31.48
2022-08-07T03:15:02.561Z,30.58
2022-08-07T03:17:52.814Z,30.02
2022-08-07T03:20:21.594Z,31.42
2022-08-07T03:22:51.431Z,31.80
2022-08-07T03:25:21.414Z,31.52
2022-08-07T03:28:37.648Z,31.85
2022-08-07T03:31:24.737Z,31.85
2022-08-07T03:34:10.566Z,33.72
2022-08-07T03:36:57.309Z,33.30
2022-08-07T03:39:59.803Z,32.28
2022-08-07T03:42:18.812Z,32.40
2022-08-07T03:44:53.618Z,31.38
2022-08-07T03:47:29.543Z,31.02
2022-08-07T03:50:22.863Z,32.67
2022-08-07T03:52:53.533Z,32.60
2022-08-07T03:55:23.159Z,30.48
2022-08-07T03:59:05.400Z,31.23
2022-08-07T04:00:46.325Z,31.05
2022-08-07T04:03:23.193Z,32.20
2022-08-07T04:05:51.799Z,31.35
2022-08-07T04:08:27.946Z,31.48
2022-08-07T04:12:24.666Z,31.00
2022-08-07T04:14:10.207Z,31.55
2022-08-07T04:16:40.396Z,31.35
2022-08-07T04:19:51.115Z,32.30
2022-08-07T04:23:19.237Z,31.50
2022-08-07T04:25:53.582Z,31.77
2022-08-07T04:28:38.265Z,31.75
2022-08-07T04:31:38.496Z,31.60
2022-08-07T04:34:16.397Z,29.70
2022-08-07T04:36:48.736Z,30.95
2022-08-07T04:39:20.022Z,27.88
2022-08-07T04:41:54.092Z,30.05
2022-08-07T04:44:22.398Z,29.98
2022-08-07T04:47:04.612Z,29.75
2022-08-07T04:50:11.009Z,28.85
2022-08-07T04:53:39.980Z,29.45
2022-08-07T04:58:16.216Z,29.65
2022-08-07T05:00:09.477Z,30.38
2022-08-07T05:02:45.597Z,24.50
2022-08-07T05:05:53.436Z,23.50
2022-08-07T05:08:59.482Z,24.02
2022-08-07T05:12:02.354Z,25.25
2022-08-07T05:15:23.411Z,24.55
2022-08-07T05:18:01.548Z,24.17
2022-08-07T05:20:41.085Z,25.05
2022-08-07T05:23:36.526Z,22.65
2022-08-07T05:26:15.259Z,21.30
2022-08-07T05:28:59.750Z,21.33
2022-08-07T05:31:37.933Z,22.30
2022-08-07T05:34:12.986Z,22.38
2022-08-07T05:36:52.926Z,22.88
2022-08-07T05:40:18.143Z,21.90
2022-08-07T05:42:15.824Z,22.13
2022-08-07T05:45:14.385Z,20.77
2022-08-07T05:48:03.884Z,23.80
2022-08-07T05:50:35.692Z,22.65
2022-08-07T05:53:07.884Z,23.02
2022-08-07T05:56:03.735Z,21.23
2022-08-07T05:58:37.396Z,24.40
2022-08-07T06:01:10.993Z,23.85
2022-08-07T06:03:53.482Z,23.60
2022-08-07T06:06:29.989Z,22.40
2022-08-07T06:09:11.127Z,22.13
2022-08-07T06:11:41.055Z,21.92
2022-08-07T06:14:20.994Z,22.15
2022-08-07T06:17:01.261Z,23.73
2022-08-07T06:19:51.905Z,23.08
2022-08-07T06:22:27.386Z,24.13
2022-08-07T06:25:01.138Z,23.88
2022-08-07T06:28:00.583Z,23.50
2022-08-07T06:30:32.279Z,24.48
2022-08-07T06:33:09.930Z,25.20
2022-08-07T06:36:06.372Z,25.97
2022-08-07T06:38:35.365Z,27.40
2022-08-07T06:41:09.752Z,25.67
2022-08-07T06:43:46.162Z,26.00
2022-08-07T06:46:16.981Z,25.92
2022-08-07T06:48:59.805Z,27.13
2022-08-07T06:51:35.167Z,27.80
2022-08-07T06:55:33.714Z,29.70
2022-08-07T06:57:10.149Z,32.08
2022-08-07T07:00:14.271Z,34.63
2022-08-07T07:02:54.371Z,33.58
2022-08-07T07:06:03.615Z,33.40
2022-08-07T07:08:18.583Z,35.10
2022-08-07T07:11:14.525Z,34.88
2022-08-07T07:14:03.057Z,36.38
2022-08-07T07:16:45.102Z,35.58
2022-08-07T07:22:36.673Z,36.10
2022-08-07T07:26:32.038Z,36.83
2022-08-07T07:28:29.629Z,35.78
2022-08-07T07:31:08.947Z,36.53
2022-08-07T07:33:39.208Z,39.47
2022-08-07T07:36:32.298Z,38.33
2022-08-07T07:39:05.685Z,37.60
2022-08-07T07:41:50.797Z,39.35
2022-08-07T07:44:25.796Z,42.63
2022-08-07T07:47:01.246Z,41.25
2022-08-07T07:50:35.101Z,41.92
2022-08-07T07:52:33.112Z,40.88
2022-08-07T07:55:03.560Z,42.25
2022-08-07T07:57:52.402Z,41.22
2022-08-07T08:00:29.714Z,40.65
2022-08-07T08:03:16.560Z,40.10
2022-08-07T08:06:00.381Z,40.33
2022-08-07T08:08:36.876Z,40.65
2022-08-07T08:11:16.457Z,38.40
2022-08-07T08:13:55.382Z,38.38
2022-08-07T08:18:36.936Z,39.35
2022-08-07T08:20:17.830Z,36.22
2022-08-07T08:22:54.384Z,40.33
2022-08-07T08:25:49.296Z,39.00
2022-08-07T08:28:38.314Z,61.42
2022-08-07T08:31:58.696Z,53.67
2022-08-07T08:34:26.703Z,40.10
2022-08-07T08:36:59.167Z,37.55
2022-08-07T08:39:39.425Z,39.13
2022-08-07T08:42:40.403Z,37.78
2022-08-07T08:45:13.279Z,36.70
2022-08-07T08:47:55.009Z,37.33
2022-08-07T08:50:45.730Z,49.00
2022-08-07T08:53:31.125Z,61.05
2022-08-07T08:56:05.715Z,42.10
2022-08-07T08:59:13.715Z,38.20
2022-08-07T09:01:51.166Z,36.83
2022-08-07T09:04:44.208Z,36.85
2022-08-07T09:07:58.228Z,34.40
2022-08-07T09:10:34.905Z,36.55
2022-08-07T09:13:07.707Z,37.88
2022-08-07T09:16:22.377Z,35.08
2022-08-07T09:19:07.293Z,34.92
2022-08-07T09:24:28.113Z,33.42
2022-08-07T09:25:17.269Z,32.13
2022-08-07T09:30:01.672Z,34.13
2022-08-07T09:31:49.533Z,33.50
2022-08-07T09:34:38.126Z,32.65
2022-08-07T09:37:47.812Z,32.97
2022-08-07T09:40:55.027Z,34.03
2022-08-07T09:44:03.211Z,32.72
2022-08-07T09:47:52.329Z,31.92
2022-08-07T09:50:01.161Z,32.67
2022-08-07T09:52:51.899Z,31.08
2022-08-07T09:56:03.341Z,32.40
2022-08-07T09:59:14.592Z,31.73
2022-08-07T10:04:59.515Z,33.45
2022-08-07T10:07:58.914Z,32.35
2022-08-07T10:11:16.666Z,33.10
2022-08-07T10:14:01.959Z,33.20
2022-08-07T10:16:50.854Z,31.80
2022-08-07T10:19:49.138Z,34.13
2022-08-07T10:22:56.083Z,31.23
2022-08-07T10:25:52.909Z,32.10
2022-08-07T10:28:27.275Z,32.13
2022-08-07T10:31:11.275Z,32.97
2022-08-07T10:34:06.199Z,32.60
2022-08-07T10:37:15.394Z,31.50
2022-08-07T10:40:09.158Z,33.22
2022-08-07T10:42:39.371Z,32.85
2022-08-07T10:45:19.438Z,31.60
2022-08-07T10:48:35.471Z,34.37
2022-08-07T10:51:39.740Z,33.80
2022-08-07T10:54:22.807Z,33.42
2022-08-07T10:57:15.593Z,32.95
2022-08-07T11:00:36.975Z,32.60
2022-08-07T11:03:13.519Z,33.45
2022-08-07T11:06:22.130Z,31.65
2022-08-07T11:09:00.958Z,34.13
2022-08-07T11:11:59.215Z,35.05
2022-08-07T11:14:59.942Z,38.30
2022-08-07T11:17:45.756Z,36.30
2022-08-07T11:20:43.178Z,34.15
2022-08-07T11:23:48.288Z,31.67
2022-08-07T11:26:28.972Z,32.60
2022-08-07T11:29:42.082Z,32.55
2022-08-07T11:32:25.238Z,32.25
2022-08-07T11:35:13.283Z,32.72
2022-08-07T11:38:12.524Z,36.70
2022-08-07T11:41:02.219Z,35.33
2022-08-07T11:44:11.104Z,37.20
2022-08-07T11:47:10.562Z,34.97
2022-08-07T11:50:31.095Z,34.63
2022-08-07T11:53:36.958Z,37.58
2022-08-07T11:56:26.718Z,37.72
2022-08-07T12:00:08.127Z,33.85
2022-08-07T12:02:34.473Z,31.17
2022-08-07T12:05:28.269Z,32.90
2022-08-07T12:08:31.403Z,31.95
2022-08-07T12:11:20.054Z,32.42
2022-08-07T12:13:57.727Z,33.75
2022-08-07T12:16:36.306Z,37.05
2022-08-07T12:19:21.617Z,36.30
2022-08-07T12:22:38.055Z,32.13
2022-08-07T12:26:00.343Z,31.17
2022-08-07T12:28:09.414Z,32.80
2022-08-07T12:30:46.912Z,37.33
2022-08-07T12:33:30.787Z,35.80
2022-08-07T12:36:13.620Z,37.92
2022-08-07T12:38:47.414Z,79.45
2022-08-07T12:41:46.251Z,47.10
2022-08-07T12:44:22.106Z,38.03
2022-08-07T12:47:21.416Z,34.72
2022-08-07T12:50:38.954Z,35.33
2022-08-07T12:53:17.371Z,44.95
2022-08-07T12:56:18.558Z,37.95
2022-08-07T12:58:57.240Z,36.80
2022-08-07T13:01:32.777Z,35.97
2022-08-07T13:04:34.469Z,33.75
2022-08-07T13:07:17.934Z,32.67
2022-08-07T13:10:39.515Z,33.25
2022-08-07T13:13:47.994Z,32.15
2022-08-07T13:16:38.609Z,31.77
2022-08-07T13:19:34.876Z,31.48
2022-08-07T13:22:27.501Z,31.30
2022-08-07T13:25:00.114Z,32.00
2022-08-07T13:28:10.882Z,33.97
2022-08-07T13:30:53.299Z,42.08
2022-08-07T13:34:33.314Z,35.35
2022-08-07T13:36:39.689Z,32.40
2022-08-07T13:39:28.625Z,35.17
2022-08-07T13:42:11.014Z,35.45
2022-08-07T13:44:43.077Z,34.88
2022-08-07T13:48:06.034Z,34.78
2022-08-07T13:50:35.519Z,35.00
2022-08-07T13:53:23.597Z,37.70
2022-08-07T13:55:54.637Z,40.45
2022-08-07T13:58:56.163Z,37.90
2022-08-07T14:01:29.747Z,35.08
2022-08-07T14:04:12.012Z,35.08
2022-08-07T14:06:47.622Z,36.60
2022-08-07T14:10:02.136Z,31.73
2022-08-07T14:12:30.342Z,35.40
2022-08-07T14:15:08.426Z,37.42
2022-08-07T14:18:24.081Z,40.42
2022-08-07T14:20:40.260Z,39.15
2022-08-07T14:23:59.098Z,36.75
2022-08-07T14:26:28.132Z,37.33
2022-08-07T14:29:05.921Z,38.03
2022-08-07T14:31:57.700Z,37.00
2022-08-07T14:35:04.239Z,36.08
2022-08-07T14:37:39.317Z,34.78
2022-08-07T14:43:57.180Z,34.38
2022-08-07T14:46:32.452Z,34.97
2022-08-07T14:49:17.480Z,35.80
2022-08-07T14:52:03.946Z,35.80
2022-08-07T14:54:42.940Z,38.58
2022-08-07T14:57:24.874Z,37.17
2022-08-07T15:02:56.845Z,35.08
2022-08-07T15:05:27.297Z,36.20
2022-08-07T15:08:00.397Z,33.92
2022-08-07T15:10:30.546Z,33.60
2022-08-07T15:13:06.081Z,33.87
2022-08-07T15:15:43.598Z,34.55
2022-08-07T15:18:35.870Z,34.22
2022-08-07T15:21:43.895Z,34.92
2022-08-07T15:25:13.967Z,32.88
2022-08-07T15:27:12.808Z,33.08
2022-08-07T15:30:04.879Z,33.67
2022-08-07T15:32:50.875Z,34.35
2022-08-07T15:36:00.575Z,33.85
2022-08-07T15:38:51.772Z,31.20
2022-08-07T15:42:42.296Z,31.77
2022-08-07T15:44:18.225Z,32.85
2022-08-07T15:46:56.554Z,33.78
2022-08-07T15:50:04.377Z,32.60
2022-08-07T15:52:29.641Z,30.08
2022-08-07T15:55:08.914Z,31.63
2022-08-07T15:57:48.444Z,31.52
2022-08-07T16:00:31.449Z,32.40
2022-08-07T16:03:46.327Z,33.15
2022-08-07T16:06:11.528Z,34.03
2022-08-07T16:08:45.473Z,33.25
2022-08-07T16:11:51.892Z,31.13
2022-08-07T16:14:54.558Z,31.45
2022-08-07T16:18:04.028Z,31.25
2022-08-07T16:20:55.156Z,29.50
2022-08-07T16:24:33.661Z,31.92
2022-08-07T16:27:18.967Z,32.55
2022-08-07T16:30:30.511Z,29.60
2022-08-07T16:34:03.256Z,28.20
2022-08-07T16:37:02.410Z,28.40
2022-08-07T16:39:56.017Z,36.80
2022-08-07T16:42:32.490Z,32.65
2022-08-07T16:46:47.284Z,34.53
2022-08-07T16:48:30.049Z,32.13
2022-08-07T16:58:02.553Z,29.77
2022-08-07T17:03:17.862Z,31.10
2022-08-07T17:06:28.212Z,30.85
2022-08-07T17:09:54.818Z,30.98
2022-08-07T17:12:52.889Z,30.60
2022-08-07T17:15:43.642Z,30.48
2022-08-07T17:18:30.286Z,34.72
2022-08-07T17:20:58.906Z,34.53
2022-08-07T17:23:32.216Z,30.40
2022-08-07T17:26:35.849Z,30.23
2022-08-07T17:30:15.026Z,33.58
2022-08-07T17:32:30.771Z,30.83
2022-08-07T17:35:50.342Z,29.92
2022-08-07T17:38:33.637Z,29.15
2022-08-07T17:42:04.863Z,29.35
2022-08-07T17:44:46.931Z,28.05
2022-08-07T17:47:41.783Z,29.60
2022-08-07T17:50:42.547Z,27.92
2022-08-07T17:54:00.673Z,27.70
2022-08-07T17:56:49.435Z,27.20
2022-08-07T17:59:43.331Z,26.70
2022-08-07T18:02:33.519Z,26.10
2022-08-07T18:05:20.677Z,27.10
2022-08-07T18:09:01.426Z,25.83
2022-08-07T18:12:07.518Z,24.77
2022-08-07T18:15:01.803Z,23.88
2022-08-07T18:18:45.694Z,25.35
2022-08-07T18:21:37.337Z,25.63
2022-08-07T18:24:40.389Z,25.83
2022-08-07T18:27:46.268Z,28.45
2022-08-07T18:30:32.401Z,33.95
2022-08-07T18:33:32.060Z,31.75
2022-08-07T18:36:33.136Z,32.93
2022-08-07T18:40:06.631Z,28.83
2022-08-07T18:42:28.748Z,31.75
2022-08-07T18:45:39.881Z,31.92
2022-08-07T18:50:05.729Z,29.75
2022-08-07T18:52:34.806Z,30.98
2022-08-07T18:54:50.832Z,33.28
2022-08-07T18:57:36.965Z,30.83
2022-08-07T19:00:33.046Z,30.83
2022-08-07T19:03:12.489Z,31.05
2022-08-07T19:06:16.394Z,28.95
2022-08-07T19:08:56.769Z,28.73
2022-08-07T19:12:06.357Z,29.17
2022-08-07T19:14:51.318Z,27.83
2022-08-07T19:18:01.190Z,29.48
2022-08-07T19:21:09.603Z,29.55
2022-08-07T19:23:57.963Z,27.52
2022-08-07T19:26:53.484Z,28.75
2022-08-07T19:31:03.675Z,25.25
2022-08-07T19:32:28.912Z,25.95
2022-08-07T19:35:03.904Z,24.83
2022-08-07T19:37:56.221Z,24.38
2022-08-07T19:40:30.898Z,25.95
2022-08-07T19:43:02.328Z,26.40
2022-08-07T19:46:05.795Z,26.23
2022-08-07T19:48:42.646Z,26.30
2022-08-07T19:51:19.359Z,25.00
2022-08-07T19:54:32.105Z,25.33
2022-08-07T19:57:51.866Z,24.92
2022-08-07T19:59:43.787Z,24.17
2022-08-07T20:02:29.464Z,23.48
2022-08-07T20:05:01.582Z,24.25
2022-08-07T20:07:46.266Z,21.83
2022-08-07T20:10:37.205Z,23.63
2022-08-07T20:13:23.539Z,25.00
2022-08-07T20:15:58.086Z,24.33
2022-08-07T20:18:32.697Z,24.15
2022-08-07T20:21:14.807Z,23.60
2022-08-07T20:24:04.986Z,24.00
2022-08-07T20:26:45.134Z,22.70
2022-08-07T20:29:49.347Z,22.45
2022-08-07T20:32:25.197Z,23.85
2022-08-07T20:35:00.172Z,23.90
2022-08-07T20:37:46.722Z,22.83
2022-08-07T20:40:33.480Z,29.42
2022-08-07T20:43:14.679Z,31.98
2022-08-07T20:46:26.875Z,31.92
2022-08-07T20:48:58.144Z,31.65
2022-08-07T20:51:40.271Z,32.30
2022-08-07T20:54:15.172Z,31.15
2022-08-07T20:57:05.230Z,31.00
2022-08-07T21:00:08.219Z,29.83
2022-08-07T21:02:54.508Z,31.15
2022-08-07T21:05:56.234Z,30.00
2022-08-07T21:08:44.172Z,28.27
2022-08-07T21:11:22.027Z,29.63
2022-08-07T21:14:31.703Z,28.58
2022-08-07T21:18:00.412Z,28.88
2022-08-07T21:20:04.787Z,25.15
2022-08-07T21:22:51.406Z,27.67
2022-08-07T21:25:39.044Z,29.63
2022-08-07T21:28:16.758Z,30.85
2022-08-07T21:31:17.705Z,32.25
2022-08-07T21:34:16.390Z,30.52
2022-08-07T21:37:00.439Z,30.60
2022-08-07T21:39:45.271Z,30.33
2022-08-07T21:42:55.534Z,28.13
2022-08-07T21:46:10.108Z,29.77
2022-08-07T21:48:57.490Z,30.08
2022-08-07T21:51:32.058Z,28.85
2022-08-07T21:54:39.103Z,30.55
2022-08-07T21:58:30.575Z,27.20
2022-08-07T22:01:13.927Z,29.50
2022-08-07T22:04:13.323Z,28.85
2022-08-07T22:07:14.043Z,28.65
2022-08-07T22:09:53.838Z,27.85
2022-08-07T22:12:24.526Z,28.38
2022-08-07T22:15:00.632Z,29.58
2022-08-07T22:17:37.788Z,29.63
2022-08-07T22:20:22.996Z,28.52
2022-08-07T22:23:01.780Z,25.70
2022-08-07T22:25:42.604Z,24.88
2022-08-07T22:28:53.129Z,24.38
2022-08-07T22:32:00.390Z,24.75
2022-08-07T22:34:54.627Z,27.60
2022-08-07T22:38:04.284Z,26.55
2022-08-07T22:40:34.719Z,27.15
2022-08-07T22:43:16.609Z,27.38
2022-08-07T22:46:21.583Z,28.75
2022-08-07T22:49:20.693Z,27.27
2022-08-07T22:52:37.499Z,28.13
2022-08-07T22:55:22.733Z,26.60
2022-08-07T22:58:27.718Z,26.67
2022-08-07T23:01:42.116Z,26.92
2022-08-07T23:04:56.724Z,27.73
2022-08-07T23:08:07.119Z,28.30
2022-08-07T23:11:35.208Z,27.58
2022-08-07T23:14:53.391Z,26.90
2022-08-07T23:17:57.478Z,27.30
2022-08-07T23:20:52.675Z,27.70
2022-08-07T23:24:06.888Z,26.15
2022-08-07T23:27:07.692Z,27.10
2022-08-07T23:30:37.395Z,25.65
2022-08-07T23:34:34.161Z,24.98
2022-08-07T23:36:28.829Z,25.23
2022-08-07T23:39:13.355Z,24.25
2022-08-07T23:42:04.236Z,23.55
2022-08-07T23:45:33.225Z,22.52
2022-08-07T23:48:29.068Z,24.60
2022-08-07T23:53:00.046Z,24.27
2022-08-07T23:54:46.583Z,25.13
2022-08-07T23:57:50.284Z,24.45
